DAUG/GHA METAR and TAF weather

Enter ICAO airport designator
Station Type Date Time Source
DAUG METAR 2021/09/23 23:00 UTC NOAA

DAUG 232300Z 04004KT 3000 HZ FEW040 SCT100 29/03 Q1016


Station Type Date Time Source
DAUG Decoded METAR 2021/09/23 23:00 UTC NOAA

Ghardaia, Algeria (DAUG) 32-23N 003-49E 450M
Sep 23, 2021 - 07:00 PM EDT / 2021.09.23 2300 UTC
Wind: from the NE (040 degrees) at 5 MPH (4 KT):0
Visibility: 1 mile(s):0
Sky conditions: partly cloudy
Weather: haze
Temperature: 84 F (29 C)
Dew Point: 37 F (3 C)
Relative Humidity: 18%
Pressure (altimeter): 30.00 in. Hg (1016 hPa)
ob: DAUG 232300Z 04004KT 3000 HZ FEW040 SCT100 29/03 Q1016
cycle: 23

Station Type Date Time Source
DAUG TAF 2021/09/23 18:30 UTC NOAA

TAF DAUG 231700Z 2318/2418 10012KT 8000 FEW040 SCT100 PROB30
TEMPO 2318/2323 11015G25KT 4000 DRSA FEW040TCU

Example: see airport list